createdAt,value
2023-07-15T00:00:54.557Z,38.40
2023-07-15T00:05:58.503Z,38.43
2023-07-15T00:11:01.490Z,38.37
2023-07-15T00:16:05.832Z,38.84
2023-07-15T00:21:14.254Z,38.44
2023-07-15T00:26:17.210Z,38.47
2023-07-15T00:31:21.666Z,38.53
2023-07-15T00:36:24.975Z,38.55
2023-07-15T00:41:29.106Z,38.34
2023-07-15T00:47:13.861Z,38.44
2023-07-15T00:52:17.788Z,38.40
2023-07-15T00:57:20.650Z,38.46
2023-07-15T01:02:25.068Z,38.66
2023-07-15T01:07:28.003Z,38.35
2023-07-15T01:12:31.266Z,38.52
2023-07-15T01:17:35.554Z,38.62
2023-07-15T01:22:39.831Z,38.51
2023-07-15T01:27:43.029Z,38.51
2023-07-15T01:32:45.849Z,38.89
2023-07-15T01:37:50.088Z,38.76
2023-07-15T01:42:53.784Z,39.04
2023-07-15T01:47:56.653Z,38.91
2023-07-15T01:53:01.161Z,38.11
2023-07-15T01:58:04.147Z,39.08
2023-07-15T02:03:07.123Z,39.19
2023-07-15T02:08:11.399Z,39.15
2023-07-15T02:13:14.246Z,40.02
2023-07-15T02:18:17.054Z,39.56
2023-07-15T02:23:21.737Z,39.50
2023-07-15T02:28:27.732Z,39.68
2023-07-15T02:33:31.553Z,39.69
2023-07-15T02:38:36.171Z,39.68
2023-07-15T02:43:39.040Z,39.72
2023-07-15T02:48:42.240Z,40.39
2023-07-15T02:53:49.585Z,40.59
2023-07-15T02:58:52.371Z,41.02
2023-07-15T03:03:55.211Z,41.77
2023-07-15T03:08:59.442Z,42.21
2023-07-15T03:14:02.607Z,42.40
2023-07-15T03:19:05.553Z,42.59
2023-07-15T03:24:10.439Z,42.17
2023-07-15T03:29:15.735Z,42.56
2023-07-15T03:34:19.709Z,42.76
2023-07-15T03:39:24.360Z,43.07
2023-07-15T03:44:27.257Z,42.85
2023-07-15T03:49:30.026Z,42.92
2023-07-15T03:54:34.171Z,43.14
2023-07-15T03:59:37.088Z,42.97
2023-07-15T04:04:39.929Z,42.97
2023-07-15T04:09:44.174Z,43.31
2023-07-15T04:14:47.025Z,43.39
2023-07-15T04:19:49.856Z,43.60
2023-07-15T04:24:54.023Z,43.39
2023-07-15T04:29:57.015Z,43.75
2023-07-15T04:34:59.833Z,43.48
2023-07-15T04:40:05.333Z,43.16
2023-07-15T04:45:09.107Z,42.91
2023-07-15T04:50:11.938Z,42.84
2023-07-15T04:55:16.872Z,42.56
2023-07-15T05:00:21.650Z,42.66
2023-07-15T05:05:24.798Z,42.29
2023-07-15T05:10:29.161Z,42.24
2023-07-15T05:15:32.764Z,41.59
2023-07-15T05:20:35.685Z,41.79
2023-07-15T05:25:39.886Z,41.79
2023-07-15T05:30:43.024Z,41.68
2023-07-15T05:35:45.972Z,41.82
2023-07-15T05:40:50.165Z,41.86
2023-07-15T05:45:53.108Z,41.39
2023-07-15T05:50:55.897Z,41.95
2023-07-15T05:56:00.049Z,41.77
2023-07-15T06:01:02.887Z,41.58
2023-07-15T06:06:05.880Z,41.75
2023-07-15T06:11:12.142Z,41.86
2023-07-15T06:16:15.221Z,41.99
2023-07-15T06:21:18.148Z,42.00
2023-07-15T06:26:22.508Z,42.20
2023-07-15T06:31:25.723Z,41.98
2023-07-15T06:36:28.750Z,41.71
2023-07-15T06:41:33.040Z,41.75
2023-07-15T06:46:36.129Z,41.74
2023-07-15T06:51:39.030Z,41.74
2023-07-15T06:56:43.296Z,41.70
2023-07-15T07:01:46.176Z,41.62
2023-07-15T07:06:49.009Z,42.16
2023-07-15T07:11:53.239Z,42.16
2023-07-15T07:16:56.135Z,42.07
2023-07-15T07:21:58.937Z,41.20
2023-07-15T07:27:03.342Z,41.27
2023-07-15T07:32:07.234Z,41.59
2023-07-15T07:37:10.634Z,41.41
2023-07-15T07:42:14.901Z,41.08
2023-07-15T07:47:18.052Z,41.03
2023-07-15T07:52:20.893Z,41.30
2023-07-15T07:57:25.046Z,40.85
2023-07-15T08:02:28.177Z,40.82
2023-07-15T08:07:31.083Z,40.73
2023-07-15T08:12:35.411Z,40.99
2023-07-15T08:17:38.319Z,41.03
2023-07-15T08:22:41.306Z,40.96
2023-07-15T08:27:45.694Z,40.97
2023-07-15T08:32:48.562Z,41.48
2023-07-15T08:37:54.109Z,41.79
2023-07-15T08:42:58.906Z,41.67
2023-07-15T08:48:01.965Z,41.89
2023-07-15T08:53:05.028Z,41.99
2023-07-15T08:58:09.241Z,42.15
2023-07-15T09:03:12.040Z,42.58
2023-07-15T09:08:16.669Z,42.06
2023-07-15T09:13:25.669Z,41.35
2023-07-15T09:18:28.522Z,41.09
2023-07-15T09:23:31.351Z,40.71
2023-07-15T09:28:35.661Z,40.58
2023-07-15T09:33:40.782Z,41.22
2023-07-15T09:38:43.867Z,41.52
2023-07-15T09:43:48.926Z,41.47
2023-07-15T09:48:53.230Z,41.78
2023-07-15T09:53:57.102Z,41.89
2023-07-15T09:59:04.909Z,42.00
2023-07-15T10:04:12.817Z,41.92
2023-07-15T10:09:15.853Z,42.12
2023-07-15T10:14:21.792Z,41.89
2023-07-15T10:19:48.886Z,41.91
2023-07-15T10:24:54.884Z,42.47
2023-07-15T10:30:17.346Z,42.90
2023-07-15T10:35:20.878Z,43.15
2023-07-15T10:40:49.809Z,44.10
2023-07-15T10:45:54.841Z,43.95
2023-07-15T10:50:58.359Z,45.26
2023-07-15T10:56:02.092Z,46.29
2023-07-15T11:01:07.044Z,46.40
2023-07-15T11:06:11.063Z,46.37
2023-07-15T11:11:14.310Z,45.94
2023-07-15T11:16:19.209Z,44.78
2023-07-15T11:21:23.340Z,43.93
2023-07-15T11:26:26.932Z,44.03
2023-07-15T11:31:31.257Z,43.76
2023-07-15T11:36:34.315Z,43.92
2023-07-15T11:41:38.416Z,43.99
2023-07-15T11:46:46.141Z,44.08
2023-07-15T11:51:49.017Z,43.88
2023-07-15T11:56:56.692Z,43.81
2023-07-15T12:02:04.804Z,43.71
2023-07-15T12:07:08.001Z,43.39
2023-07-15T12:12:10.952Z,43.39
2023-07-15T12:17:15.374Z,43.11
2023-07-15T12:22:18.212Z,42.93
2023-07-15T12:27:21.336Z,43.25
2023-07-15T12:32:26.594Z,42.68
2023-07-15T12:37:29.683Z,42.85
2023-07-15T12:42:32.554Z,42.71
2023-07-15T12:47:36.831Z,42.80
2023-07-15T12:52:39.928Z,42.64
2023-07-15T12:57:45.424Z,42.67
2023-07-15T13:02:50.404Z,42.51
2023-07-15T13:07:54.132Z,42.14
2023-07-15T13:12:57.039Z,42.10
2023-07-15T13:18:01.501Z,42.29
2023-07-15T13:23:04.743Z,42.15
2023-07-15T13:28:08.223Z,41.86
2023-07-15T13:33:12.538Z,42.13
2023-07-15T13:38:15.559Z,41.75
2023-07-15T13:43:18.427Z,41.79
2023-07-15T13:48:22.658Z,41.97
2023-07-15T13:53:25.481Z,41.69
2023-07-15T13:58:28.296Z,41.78
2023-07-15T14:03:32.528Z,42.04
2023-07-15T14:08:35.401Z,41.82
2023-07-15T14:13:38.538Z,41.69
2023-07-15T14:18:43.197Z,41.49
2023-07-15T14:23:46.077Z,41.88
2023-07-15T14:28:48.928Z,41.55
2023-07-15T14:33:55.345Z,41.45
2023-07-15T14:38:58.422Z,41.47
2023-07-15T14:44:01.356Z,40.99
2023-07-15T14:49:05.743Z,41.10
2023-07-15T14:54:09.013Z,41.38
2023-07-15T14:59:11.873Z,41.05
2023-07-15T15:04:16.151Z,41.03
2023-07-15T15:09:19.075Z,41.05
2023-07-15T15:14:22.643Z,41.02
2023-07-15T15:19:27.499Z,41.08
2023-07-15T15:24:30.731Z,41.02
2023-07-15T15:29:33.552Z,40.30
2023-07-15T15:34:37.951Z,39.12
2023-07-15T15:39:42.209Z,39.96
2023-07-15T15:44:45.087Z,39.77
2023-07-15T15:49:49.282Z,41.06
2023-07-15T15:54:52.121Z,41.40
2023-07-15T15:59:56.924Z,41.83
2023-07-15T16:05:01.227Z,42.29
2023-07-15T16:10:04.439Z,42.47
2023-07-15T16:15:08.637Z,42.66
2023-07-15T16:20:13.360Z,42.46
2023-07-15T16:25:16.380Z,42.68
2023-07-15T16:30:19.240Z,43.28
2023-07-15T16:35:23.441Z,43.07
2023-07-15T16:40:26.393Z,42.97
2023-07-15T16:45:29.522Z,43.15
2023-07-15T16:50:33.743Z,43.15
2023-07-15T16:55:36.744Z,43.22
2023-07-15T17:00:39.622Z,43.45
2023-07-15T17:05:43.870Z,43.27
2023-07-15T17:10:46.717Z,43.13
2023-07-15T17:15:49.583Z,43.47
2023-07-15T17:20:54.184Z,43.57
2023-07-15T17:25:57.036Z,42.96
2023-07-15T17:30:59.993Z,43.34
2023-07-15T17:36:04.426Z,43.19
2023-07-15T17:41:07.363Z,43.40
2023-07-15T17:46:10.327Z,43.42
2023-07-15T17:51:15.011Z,43.19
2023-07-15T17:56:19.504Z,43.40
2023-07-15T18:01:22.398Z,43.20
2023-07-15T18:06:26.882Z,43.20
2023-07-15T18:11:29.733Z,43.33
2023-07-15T18:16:32.729Z,43.24
2023-07-15T18:21:37.211Z,43.58
2023-07-15T18:26:40.068Z,43.74
2023-07-15T18:31:42.979Z,43.91
2023-07-15T18:36:47.348Z,44.09
2023-07-15T18:41:50.288Z,44.28
2023-07-15T18:46:53.189Z,44.38
2023-07-15T18:51:57.452Z,44.38
2023-07-15T18:57:12.159Z,44.72
2023-07-15T19:02:23.490Z,44.22
2023-07-15T19:07:30.555Z,44.81
2023-07-15T19:12:33.430Z,44.76
2023-07-15T19:17:36.989Z,45.65
2023-07-15T19:22:41.214Z,46.20
2023-07-15T19:27:44.167Z,47.47
2023-07-15T19:32:47.096Z,50.12
2023-07-15T19:37:51.454Z,52.52
2023-07-15T19:42:54.571Z,50.22
2023-07-15T19:47:57.636Z,51.08
2023-07-15T19:53:02.028Z,51.31
2023-07-15T19:58:04.968Z,50.84
2023-07-15T20:03:08.048Z,51.32
2023-07-15T20:08:12.381Z,50.39
2023-07-15T20:13:17.571Z,51.31
2023-07-15T20:18:20.789Z,52.11
2023-07-15T20:23:25.073Z,53.17
2023-07-15T20:28:28.164Z,53.50
2023-07-15T20:33:31.185Z,54.68
2023-07-15T20:38:36.801Z,55.20
2023-07-15T20:43:39.807Z,53.21
2023-07-15T20:48:42.625Z,50.88
2023-07-15T20:53:46.798Z,49.68
2023-07-15T20:58:49.641Z,49.74
2023-07-15T21:03:53.100Z,49.84
2023-07-15T21:08:57.311Z,49.22
2023-07-15T21:14:00.331Z,49.10
2023-07-15T21:19:03.242Z,50.76
2023-07-15T21:24:07.736Z,51.58
2023-07-15T21:29:10.568Z,51.69
2023-07-15T21:34:13.466Z,52.16
2023-07-15T21:39:17.748Z,51.58
2023-07-15T21:44:20.577Z,53.12
2023-07-15T21:49:23.595Z,52.72
2023-07-15T21:54:27.825Z,52.81
2023-07-15T21:59:30.835Z,52.70
2023-07-15T22:04:34.821Z,52.55
2023-07-15T22:09:39.119Z,53.49
2023-07-15T22:14:41.897Z,54.51
2023-07-15T22:19:44.732Z,54.14
2023-07-15T22:24:48.859Z,53.32
2023-07-15T22:29:51.700Z,53.90
2023-07-15T22:34:54.517Z,53.53
2023-07-15T22:39:58.775Z,52.87
2023-07-15T22:45:01.683Z,52.62
2023-07-15T22:50:04.793Z,52.57
2023-07-15T22:55:09.702Z,52.14
2023-07-15T23:00:14.081Z,52.46
2023-07-15T23:05:16.947Z,52.64
2023-07-15T23:10:21.535Z,52.88
2023-07-15T23:15:24.350Z,52.48
2023-07-15T23:20:27.085Z,52.69
2023-07-15T23:25:31.217Z,52.89
2023-07-15T23:30:34.344Z,53.31
2023-07-15T23:35:41.236Z,53.33
2023-07-15T23:40:45.439Z,52.81
2023-07-15T23:45:48.198Z,53.35
2023-07-15T23:50:51.161Z,53.25
2023-07-15T23:55:55.421Z,55.04
